createdAt,value
2023-01-23T00:00:15.707Z,16.00
2023-01-23T00:02:43.966Z,18.00
2023-01-23T00:05:12.227Z,17.75
2023-01-23T00:07:40.098Z,16.75
2023-01-23T00:10:08.911Z,14.00
2023-01-23T00:12:38.417Z,17.50
2023-01-23T00:15:09.440Z,16.25
2023-01-23T00:17:37.339Z,14.50
2023-01-23T00:20:05.801Z,15.00
2023-01-23T00:22:33.999Z,14.25
2023-01-23T00:25:01.889Z,15.50
2023-01-23T00:27:29.780Z,15.25
2023-01-23T00:29:59.082Z,15.00
2023-01-23T00:32:27.281Z,16.00
2023-01-23T00:34:55.148Z,13.50
2023-01-23T00:37:23.077Z,14.25
2023-01-23T00:39:51.515Z,17.00
2023-01-23T00:42:19.680Z,16.25
2023-01-23T00:44:47.615Z,12.25
2023-01-23T00:47:16.849Z,14.75
2023-01-23T00:49:44.708Z,14.00
2023-01-23T00:52:12.907Z,15.25
2023-01-23T00:54:40.847Z,12.75
2023-01-23T00:57:08.712Z,13.50
2023-01-23T00:59:36.674Z,13.00
2023-01-23T01:02:04.815Z,14.00
2023-01-23T01:04:34.057Z,12.25
2023-01-23T01:07:02.038Z,14.25
2023-01-23T01:09:29.919Z,14.25
2023-01-23T01:11:58.314Z,12.00
2023-01-23T01:14:26.207Z,13.25
2023-01-23T01:16:54.090Z,14.00
2023-01-23T01:19:21.937Z,13.25
2023-01-23T01:21:51.527Z,11.50
2023-01-23T01:24:19.384Z,12.00
2023-01-23T01:26:47.249Z,12.50
2023-01-23T01:29:15.193Z,11.75
2023-01-23T01:31:43.384Z,11.75
2023-01-23T01:34:11.301Z,12.00
2023-01-23T01:36:39.205Z,11.75
2023-01-23T01:39:10.737Z,12.50
2023-01-23T01:41:38.612Z,11.50
2023-01-23T01:44:07.737Z,9.50
2023-01-23T01:46:35.670Z,11.00
2023-01-23T01:49:07.630Z,10.75
2023-01-23T01:51:38.098Z,11.75
2023-01-23T01:54:10.795Z,10.50
2023-01-23T01:56:41.153Z,10.25
2023-01-23T01:59:09.012Z,11.25
2023-01-23T02:01:37.199Z,11.25
2023-01-23T02:04:05.586Z,11.00
2023-01-23T02:06:33.486Z,13.50
2023-01-23T02:09:04.092Z,9.75
2023-01-23T02:11:33.715Z,10.00
2023-01-23T02:14:01.635Z,9.75
2023-01-23T02:16:31.309Z,11.75
2023-01-23T02:19:00.972Z,10.00
2023-01-23T02:21:29.630Z,8.50
2023-01-23T02:24:05.008Z,11.75
2023-01-23T02:26:36.756Z,10.00
2023-01-23T02:29:04.900Z,11.00
2023-01-23T02:31:35.212Z,9.75
2023-01-23T02:34:03.133Z,11.00
2023-01-23T02:36:32.101Z,10.00
2023-01-23T02:39:03.944Z,9.75
2023-01-23T02:41:34.249Z,9.25
2023-01-23T02:44:03.630Z,9.00
2023-01-23T02:46:31.525Z,9.25
2023-01-23T02:49:00.612Z,9.75
2023-01-23T02:51:28.818Z,10.00
2023-01-23T02:53:56.736Z,10.00
2023-01-23T02:56:24.645Z,8.00
2023-01-23T02:59:12.109Z,10.50
2023-01-23T03:01:40.051Z,10.50
2023-01-23T03:04:07.961Z,9.75
2023-01-23T03:06:37.830Z,10.00
2023-01-23T03:09:08.057Z,10.75
2023-01-23T03:11:36.728Z,11.00
2023-01-23T03:14:06.235Z,10.75
2023-01-23T03:16:37.219Z,8.50
2023-01-23T03:19:08.797Z,10.75
2023-01-23T03:21:37.893Z,9.00
2023-01-23T03:24:06.191Z,8.50
2023-01-23T03:26:34.081Z,9.00
2023-01-23T03:29:19.821Z,8.25
2023-01-23T03:31:49.167Z,9.00
2023-01-23T03:34:18.032Z,11.00
2023-01-23T03:36:46.470Z,9.25
2023-01-23T03:39:32.241Z,8.25
2023-01-23T03:42:00.123Z,8.25
2023-01-23T03:44:27.979Z,8.50
2023-01-23T03:46:57.279Z,8.50
2023-01-23T03:49:26.099Z,8.50
2023-01-23T03:51:54.250Z,9.00
2023-01-23T03:54:22.111Z,7.00
2023-01-23T03:56:50.014Z,10.00
2023-01-23T03:59:17.895Z,9.00
2023-01-23T04:01:45.796Z,8.00
2023-01-23T04:04:15.061Z,8.00
2023-01-23T04:06:42.959Z,9.00
2023-01-23T04:09:10.829Z,9.50
2023-01-23T04:11:39.104Z,11.00
2023-01-23T04:14:07.019Z,9.50
2023-01-23T04:16:34.941Z,8.00
2023-01-23T04:19:02.844Z,9.50
2023-01-23T04:21:32.434Z,8.25
2023-01-23T04:24:00.342Z,8.75
2023-01-23T04:26:28.242Z,9.00
2023-01-23T04:28:56.106Z,7.75
2023-01-23T04:31:25.202Z,8.75
2023-01-23T04:33:53.146Z,8.50
2023-01-23T04:36:21.000Z,7.25
2023-01-23T04:38:50.263Z,8.00
2023-01-23T04:41:20.467Z,8.00
2023-01-23T04:43:48.321Z,7.75
2023-01-23T04:46:16.231Z,7.50
2023-01-23T04:48:44.129Z,8.00
2023-01-23T04:51:12.391Z,8.00
2023-01-23T04:53:40.326Z,8.50
2023-01-23T04:56:10.297Z,7.00
2023-01-23T04:58:38.168Z,7.75
2023-01-23T05:01:06.612Z,11.50
2023-01-23T05:03:35.186Z,8.50
2023-01-23T05:06:03.189Z,8.00
2023-01-23T05:08:31.097Z,8.00
2023-01-23T05:11:00.315Z,8.50
2023-01-23T05:13:29.584Z,8.75
2023-01-23T05:15:58.486Z,7.50
2023-01-23T05:18:26.544Z,8.00
2023-01-23T05:20:54.781Z,8.00
2023-01-23T05:23:22.747Z,7.00
2023-01-23T05:25:50.671Z,7.50
2023-01-23T05:28:18.537Z,7.75
2023-01-23T05:30:48.609Z,8.00
2023-01-23T05:33:16.626Z,7.00
2023-01-23T05:35:44.661Z,7.00
2023-01-23T05:38:13.363Z,7.00
2023-01-23T05:40:41.248Z,8.00
2023-01-23T05:43:09.419Z,7.00
2023-01-23T05:45:37.296Z,9.00
2023-01-23T05:48:07.271Z,7.75
2023-01-23T05:50:35.205Z,9.00
2023-01-23T05:53:03.596Z,6.25
2023-01-23T05:55:31.499Z,7.50
2023-01-23T05:57:59.458Z,10.00
2023-01-23T06:00:27.794Z,8.00
2023-01-23T06:02:56.100Z,7.00
2023-01-23T06:05:25.387Z,8.25
2023-01-23T06:07:53.257Z,7.25
2023-01-23T06:10:21.572Z,7.00
2023-01-23T06:12:50.035Z,9.50
2023-01-23T06:15:18.372Z,8.25
2023-01-23T06:17:46.330Z,10.00
2023-01-23T06:20:15.110Z,10.00
2023-01-23T06:22:44.660Z,11.00
2023-01-23T06:25:12.812Z,14.75
2023-01-23T06:27:40.678Z,15.00
2023-01-23T06:30:12.864Z,16.25
2023-01-23T06:32:40.954Z,18.00
2023-01-23T06:35:09.513Z,18.75
2023-01-23T06:37:37.482Z,19.50
2023-01-23T06:40:08.182Z,21.50
2023-01-23T06:42:36.343Z,18.75
2023-01-23T06:45:04.350Z,20.50
2023-01-23T06:47:33.045Z,21.25
2023-01-23T06:50:02.103Z,24.50
2023-01-23T06:52:30.085Z,20.75
2023-01-23T06:54:57.991Z,24.00
2023-01-23T06:57:27.308Z,25.75
2023-01-23T06:59:55.197Z,26.75
2023-01-23T07:02:23.573Z,24.50
2023-01-23T07:04:51.519Z,24.00
2023-01-23T07:07:19.537Z,23.75
2023-01-23T07:09:47.448Z,22.25
2023-01-23T07:12:15.625Z,23.00
2023-01-23T07:14:44.910Z,22.75
2023-01-23T07:17:12.903Z,24.25
2023-01-23T07:19:40.756Z,21.50
2023-01-23T07:22:08.640Z,23.50
2023-01-23T07:24:36.553Z,23.75
2023-01-23T07:27:04.562Z,21.00
2023-01-23T07:29:32.517Z,22.25
2023-01-23T07:32:02.158Z,24.25
2023-01-23T07:34:30.110Z,19.50
2023-01-23T07:36:57.982Z,20.25
2023-01-23T07:39:26.020Z,19.75
2023-01-23T07:41:54.246Z,20.75
2023-01-23T07:44:22.610Z,23.25
2023-01-23T07:46:50.545Z,19.25
2023-01-23T07:49:19.905Z,20.75
2023-01-23T07:51:48.099Z,17.25
2023-01-23T07:54:17.359Z,18.00
2023-01-23T07:56:45.245Z,19.00
2023-01-23T07:59:13.568Z,18.50
2023-01-23T08:01:41.767Z,19.00
2023-01-23T08:04:09.759Z,16.75
2023-01-23T08:06:39.155Z,17.75
2023-01-23T08:09:07.056Z,18.00
2023-01-23T08:11:35.320Z,13.50
2023-01-23T08:14:03.285Z,16.75
2023-01-23T08:16:31.237Z,17.00
2023-01-23T08:18:59.193Z,16.00
2023-01-23T08:21:27.456Z,20.25
2023-01-23T08:23:56.764Z,17.25
2023-01-23T08:26:24.686Z,16.75
2023-01-23T08:28:52.604Z,18.25
2023-01-23T08:31:20.879Z,16.50
2023-01-23T08:33:48.870Z,15.25
2023-01-23T08:36:16.824Z,13.75
2023-01-23T08:38:44.747Z,15.75
2023-01-23T08:41:14.387Z,13.25
2023-01-23T08:43:42.559Z,14.75
2023-01-23T08:46:10.556Z,13.00
2023-01-23T08:48:38.526Z,14.50
2023-01-23T08:51:07.725Z,14.00
2023-01-23T08:53:36.067Z,14.00
2023-01-23T08:56:06.828Z,13.50
2023-01-23T08:58:36.128Z,13.25
2023-01-23T09:01:04.287Z,15.25
2023-01-23T09:03:32.219Z,13.00
2023-01-23T09:06:02.452Z,14.25
2023-01-23T09:08:30.381Z,13.25
2023-01-23T09:11:01.487Z,12.00
2023-01-23T09:13:29.362Z,12.00
2023-01-23T09:15:58.648Z,12.25
2023-01-23T09:18:26.628Z,12.00
2023-01-23T09:20:54.878Z,12.50
2023-01-23T09:23:22.759Z,12.25
2023-01-23T09:25:52.135Z,11.25
2023-01-23T09:28:20.026Z,12.00
2023-01-23T09:30:47.948Z,13.00
2023-01-23T09:33:18.083Z,14.00
2023-01-23T09:35:46.265Z,12.25
2023-01-23T09:38:14.154Z,12.50
2023-01-23T09:40:47.031Z,12.25
2023-01-23T09:43:17.936Z,12.00
2023-01-23T09:45:48.727Z,11.50
2023-01-23T09:48:20.839Z,11.25
2023-01-23T09:51:00.729Z,10.50
2023-01-23T09:53:32.161Z,10.00
2023-01-23T09:56:01.377Z,13.00
2023-01-23T09:58:32.053Z,12.00
2023-01-23T10:01:00.509Z,11.00
2023-01-23T10:03:31.374Z,10.25
2023-01-23T10:06:07.102Z,10.50
2023-01-23T10:08:37.730Z,11.00
2023-01-23T10:11:07.477Z,11.25
2023-01-23T10:13:52.012Z,10.00
2023-01-23T10:16:35.400Z,11.00
2023-01-23T10:19:19.336Z,10.50
2023-01-23T10:21:49.016Z,10.00
2023-01-23T10:24:26.315Z,11.00
2023-01-23T10:26:54.232Z,11.50
2023-01-23T10:29:29.754Z,9.00
2023-01-23T10:31:58.885Z,11.00
2023-01-23T10:34:34.446Z,10.50
2023-01-23T10:37:08.341Z,10.00
2023-01-23T10:39:46.569Z,12.00
2023-01-23T10:42:14.734Z,10.00
2023-01-23T10:44:42.608Z,11.50
2023-01-23T10:47:15.891Z,11.25
2023-01-23T10:49:46.636Z,9.00
2023-01-23T10:52:30.976Z,9.00
2023-01-23T10:54:58.882Z,11.00
2023-01-23T10:57:27.201Z,10.75
2023-01-23T10:59:56.956Z,9.50
2023-01-23T11:02:28.813Z,11.00
2023-01-23T11:04:58.194Z,10.75
2023-01-23T11:07:26.633Z,10.00
2023-01-23T11:09:56.233Z,10.00
2023-01-23T11:12:25.436Z,9.25
2023-01-23T11:14:53.780Z,10.75
2023-01-23T11:17:23.700Z,9.00
2023-01-23T11:19:53.654Z,8.25
2023-01-23T11:22:28.891Z,8.00
2023-01-23T11:24:56.945Z,9.00
2023-01-23T11:27:26.679Z,9.50
2023-01-23T11:30:19.797Z,9.25
2023-01-23T11:32:50.800Z,8.00
2023-01-23T11:35:21.396Z,9.50
2023-01-23T11:37:50.891Z,11.50
2023-01-23T11:40:20.405Z,9.00
2023-01-23T11:42:48.658Z,10.00
2023-01-23T11:45:21.899Z,10.00
2023-01-23T11:47:56.143Z,9.00
2023-01-23T11:50:30.672Z,9.00
2023-01-23T11:53:03.496Z,10.50
2023-01-23T11:55:46.351Z,10.00
2023-01-23T11:58:21.380Z,10.00
2023-01-23T12:00:52.907Z,10.25
2023-01-23T12:03:32.772Z,10.25
2023-01-23T12:06:39.407Z,9.00
2023-01-23T12:09:12.227Z,10.50
2023-01-23T12:11:46.726Z,8.00
2023-01-23T12:14:17.285Z,7.75
2023-01-23T12:17:13.765Z,9.00
2023-01-23T12:19:52.949Z,9.00
2023-01-23T12:22:24.170Z,9.00
2023-01-23T12:25:03.193Z,8.50
2023-01-23T12:27:37.561Z,9.50
2023-01-23T12:30:39.022Z,8.25
2023-01-23T12:33:17.174Z,10.00
2023-01-23T12:35:49.272Z,9.00
2023-01-23T12:38:25.107Z,8.75
2023-01-23T12:40:57.377Z,8.50
2023-01-23T12:43:33.135Z,8.00
2023-01-23T12:46:17.242Z,9.25
2023-01-23T12:48:46.829Z,10.00
2023-01-23T12:51:17.852Z,9.50
2023-01-23T12:53:45.875Z,8.75
2023-01-23T12:56:17.198Z,7.00
2023-01-23T12:58:48.367Z,9.00
2023-01-23T13:01:29.611Z,7.25
2023-01-23T13:04:04.441Z,9.25
2023-01-23T13:06:38.576Z,8.75
2023-01-23T13:09:17.438Z,8.50
2023-01-23T13:11:54.528Z,9.50
2023-01-23T13:14:25.568Z,7.50
2023-01-23T13:16:58.927Z,8.25
2023-01-23T13:19:45.043Z,7.25
2023-01-23T13:22:29.084Z,9.25
2023-01-23T13:25:12.722Z,8.00
2023-01-23T13:27:44.859Z,10.00
2023-01-23T13:30:43.947Z,8.00
2023-01-23T13:33:56.777Z,8.25
2023-01-23T13:36:36.919Z,8.75
2023-01-23T13:39:23.747Z,7.00
2023-01-23T13:42:10.184Z,7.00
2023-01-23T13:44:41.784Z,8.50
2023-01-23T14:22:59.428Z,8.00
2023-01-23T14:25:27.398Z,7.50
2023-01-23T14:28:03.818Z,8.75
2023-01-23T14:30:31.830Z,8.50
2023-01-23T14:33:01.108Z,9.75
2023-01-23T14:35:30.371Z,8.50
2023-01-23T14:37:59.348Z,6.50
2023-01-23T14:40:29.796Z,9.00
2023-01-23T14:43:03.288Z,8.50
2023-01-23T14:45:33.107Z,8.25
2023-01-23T14:48:07.180Z,8.25
2023-01-23T14:50:35.775Z,8.25
2023-01-23T14:53:04.563Z,6.25
2023-01-23T14:55:32.865Z,8.50
2023-01-23T14:58:01.010Z,8.50
2023-01-23T15:00:29.015Z,9.25
2023-01-23T15:02:57.402Z,7.25
2023-01-23T15:05:27.389Z,10.00
2023-01-23T15:07:57.001Z,8.50
2023-01-23T15:10:26.110Z,7.25
2023-01-23T15:12:55.508Z,7.25
2023-01-23T15:15:24.667Z,7.25
2023-01-23T15:17:53.161Z,10.75
2023-01-23T15:20:38.421Z,7.00
2023-01-23T15:23:31.297Z,8.25
2023-01-23T15:26:13.310Z,7.50
2023-01-23T15:28:41.991Z,9.00
2023-01-23T15:31:26.552Z,7.75
2023-01-23T15:33:54.626Z,8.25
2023-01-23T15:36:30.644Z,7.75
2023-01-23T15:38:59.187Z,8.25
2023-01-23T15:41:45.158Z,8.00
2023-01-23T15:44:14.206Z,9.50
2023-01-23T15:46:42.239Z,9.75
2023-01-23T15:49:19.912Z,7.25
2023-01-23T15:51:55.905Z,8.50
2023-01-23T15:54:26.427Z,7.50
2023-01-23T15:57:06.616Z,7.75
2023-01-23T15:59:35.756Z,9.50
2023-01-23T16:02:03.962Z,8.00
2023-01-23T16:04:31.960Z,7.75
2023-01-23T16:07:02.358Z,7.50
2023-01-23T16:09:31.368Z,8.00
2023-01-23T16:12:00.092Z,6.25
2023-01-23T16:14:28.054Z,9.00
2023-01-23T16:16:58.301Z,7.00
2023-01-23T16:19:32.806Z,8.50
2023-01-23T16:22:05.207Z,7.75
2023-01-23T16:24:35.209Z,9.00
2023-01-23T16:27:03.256Z,9.25
2023-01-23T16:29:31.949Z,9.00
2023-01-23T16:32:00.443Z,9.25
2023-01-23T16:34:28.396Z,8.75
2023-01-23T16:36:57.540Z,8.00
2023-01-23T16:39:28.137Z,9.00
2023-01-23T16:41:56.301Z,9.00
2023-01-23T16:44:24.868Z,8.50
2023-01-23T16:46:53.032Z,10.00
2023-01-23T16:49:21.510Z,9.25
2023-01-23T16:51:55.677Z,8.50
2023-01-23T16:54:48.369Z,8.00
2023-01-23T16:57:18.575Z,9.75
2023-01-23T16:59:46.529Z,7.50
2023-01-23T17:02:18.435Z,7.75
2023-01-23T17:04:46.357Z,8.75
2023-01-23T17:07:15.705Z,8.25
2023-01-23T17:09:43.747Z,7.75
2023-01-23T17:12:15.475Z,9.50
2023-01-23T17:14:43.487Z,9.50
2023-01-23T17:17:13.756Z,11.25
2023-01-23T17:19:42.620Z,8.50
2023-01-23T17:22:19.061Z,9.25
2023-01-23T17:24:47.275Z,9.00
2023-01-23T17:27:16.627Z,7.75
2023-01-23T17:29:44.559Z,9.50
2023-01-23T17:32:20.395Z,9.75
2023-01-23T17:34:50.263Z,8.75
2023-01-23T17:37:20.575Z,8.75
2023-01-23T17:39:48.453Z,9.25
2023-01-23T17:42:18.003Z,10.00
2023-01-23T17:44:45.970Z,9.25
2023-01-23T17:47:50.225Z,10.00
2023-01-23T17:50:19.018Z,9.75
2023-01-23T17:52:47.765Z,10.75
2023-01-23T17:55:16.348Z,8.00
2023-01-23T17:57:46.080Z,10.75
2023-01-23T18:00:15.896Z,9.75
2023-01-23T18:02:44.021Z,10.50
2023-01-23T18:05:12.319Z,9.50
2023-01-23T18:07:53.063Z,9.00
2023-01-23T18:10:22.054Z,9.00
2023-01-23T18:12:52.952Z,9.00
2023-01-23T18:15:29.261Z,10.00
2023-01-23T18:18:01.374Z,10.00
2023-01-23T18:20:30.135Z,12.75
2023-01-23T18:22:59.208Z,10.00
2023-01-23T18:25:27.711Z,10.50
2023-01-23T18:27:57.698Z,10.50
2023-01-23T18:30:41.206Z,14.75
2023-01-23T18:33:17.789Z,16.25
2023-01-23T18:35:58.457Z,13.00
2023-01-23T18:38:30.787Z,16.75
2023-01-23T18:41:07.251Z,17.25
2023-01-23T18:43:39.707Z,17.00
2023-01-23T18:46:28.075Z,17.00
2023-01-23T18:48:59.230Z,22.00
2023-01-23T18:51:35.130Z,20.50
2023-01-23T18:54:19.741Z,21.75
2023-01-23T18:56:55.782Z,24.25
2023-01-23T18:59:33.676Z,25.50
2023-01-23T19:02:04.436Z,23.25
2023-01-23T19:04:37.008Z,25.00
2023-01-23T19:07:08.790Z,25.50
2023-01-23T19:09:40.096Z,24.75
2023-01-23T19:12:24.837Z,24.25
2023-01-23T19:15:24.075Z,25.25
2023-01-23T19:17:54.337Z,26.50
2023-01-23T19:20:27.855Z,25.00
2023-01-23T19:23:01.890Z,24.00
2023-01-23T19:25:30.404Z,23.75
2023-01-23T19:27:58.723Z,24.25
2023-01-23T19:30:28.850Z,28.00
2023-01-23T19:32:57.060Z,22.25
2023-01-23T19:35:24.944Z,25.00
2023-01-23T19:37:53.251Z,25.50
2023-01-23T19:40:21.214Z,23.75
2023-01-23T19:42:58.850Z,26.50
2023-01-23T19:45:38.348Z,27.25
2023-01-23T19:48:06.598Z,23.25
2023-01-23T19:50:34.495Z,25.50
2023-01-23T19:53:02.743Z,23.75
2023-01-23T19:55:31.807Z,25.75
2023-01-23T19:57:59.723Z,23.50
2023-01-23T20:00:29.627Z,24.50
2023-01-23T20:02:59.315Z,27.75
2023-01-23T20:05:27.276Z,25.50
2023-01-23T20:07:58.742Z,27.25
2023-01-23T20:10:28.051Z,29.75
2023-01-23T20:12:56.765Z,29.25
2023-01-23T20:15:25.709Z,36.75
2023-01-23T20:17:53.680Z,29.25
2023-01-23T20:20:23.517Z,29.00
2023-01-23T20:22:51.916Z,30.50
2023-01-23T20:25:20.229Z,34.50
2023-01-23T20:27:48.275Z,36.50
2023-01-23T20:30:18.116Z,33.75
2023-01-23T20:32:46.364Z,37.00
2023-01-23T20:35:14.274Z,32.00
2023-01-23T20:37:45.127Z,32.25
2023-01-23T20:40:17.774Z,34.00
2023-01-23T20:42:50.612Z,35.75
2023-01-23T20:45:19.134Z,36.75
2023-01-23T20:47:47.243Z,33.50
2023-01-23T20:50:15.151Z,38.50
2023-01-23T20:52:58.609Z,31.75
2023-01-23T20:55:26.601Z,30.25
2023-01-23T20:58:11.781Z,36.25
2023-01-23T21:00:39.702Z,34.25
2023-01-23T21:03:07.903Z,33.00
2023-01-23T21:05:35.796Z,33.00
2023-01-23T21:08:05.281Z,35.00
2023-01-23T21:10:33.188Z,31.25
2023-01-23T21:13:01.363Z,31.00
2023-01-23T21:15:30.958Z,33.00
2023-01-23T21:18:00.244Z,32.75
2023-01-23T21:20:28.208Z,34.50
2023-01-23T21:22:56.362Z,33.75
2023-01-23T21:25:25.672Z,33.75
2023-01-23T21:27:53.551Z,28.75
2023-01-23T21:30:21.661Z,28.50
2023-01-23T21:32:50.423Z,27.75
2023-01-23T21:35:18.974Z,28.50
2023-01-23T21:37:47.124Z,27.50
2023-01-23T21:40:15.345Z,26.50
2023-01-23T21:42:44.947Z,30.00
2023-01-23T21:45:13.151Z,27.75
2023-01-23T21:47:41.052Z,25.25
2023-01-23T21:50:10.371Z,25.75
2023-01-23T21:52:38.584Z,26.00
2023-01-23T21:55:07.377Z,28.50
2023-01-23T21:57:35.339Z,25.75
2023-01-23T22:00:22.464Z,27.25
2023-01-23T22:02:50.369Z,25.00
2023-01-23T22:05:18.392Z,23.00
2023-01-23T22:07:47.430Z,23.50
2023-01-23T22:10:15.363Z,23.00
2023-01-23T22:12:43.552Z,26.50
2023-01-23T22:15:13.251Z,25.25
2023-01-23T22:17:41.126Z,25.50
2023-01-23T22:20:10.389Z,30.50
2023-01-23T22:22:38.599Z,28.25
2023-01-23T22:25:07.440Z,29.75
2023-01-23T22:27:35.355Z,27.75
2023-01-23T22:30:03.483Z,29.75
2023-01-23T22:32:35.064Z,34.25
2023-01-23T22:35:03.054Z,32.00
2023-01-23T22:37:31.192Z,34.50
2023-01-23T22:39:59.143Z,32.50
2023-01-23T22:42:28.351Z,35.50
2023-01-23T22:44:56.252Z,35.75
2023-01-23T22:47:41.115Z,35.00
2023-01-23T22:50:11.926Z,39.25
2023-01-23T22:52:41.572Z,35.75
2023-01-23T22:55:09.525Z,34.25
2023-01-23T22:57:37.438Z,38.50
2023-01-23T23:00:08.264Z,37.50
2023-01-23T23:02:37.405Z,32.75
2023-01-23T23:05:06.151Z,34.00
2023-01-23T23:07:36.430Z,34.75
2023-01-23T23:10:04.511Z,34.50
2023-01-23T23:12:32.677Z,32.75
2023-01-23T23:15:00.564Z,34.50
2023-01-23T23:17:29.786Z,33.75
2023-01-23T23:19:57.767Z,35.75
2023-01-23T23:22:26.042Z,32.50
2023-01-23T23:24:55.336Z,34.50
2023-01-23T23:27:23.237Z,35.00
2023-01-23T23:29:51.125Z,31.25
2023-01-23T23:32:19.342Z,31.00
2023-01-23T23:34:47.308Z,31.25
2023-01-23T23:37:16.838Z,28.00
2023-01-23T23:39:44.730Z,29.75
2023-01-23T23:42:14.351Z,29.75
2023-01-23T23:44:43.042Z,33.75
2023-01-23T23:47:10.907Z,30.50
2023-01-23T23:49:38.876Z,27.00
2023-01-23T23:52:07.012Z,30.75
2023-01-23T23:54:35.070Z,31.25
2023-01-23T23:57:03.002Z,26.00
2023-01-23T23:59:33.348Z,27.25
